<?xml version="1.0" encoding="UTF-8" standalone="no" ?>
<gpx xmlns="http://www.topografix.com/GPX/1/1" xmlns:xsi="http://www.w3.org/2001/XMLSchema-instance" xsi:schemaLocation="http://www.topografix.com/GPX/1/1 http://www.topografix.com/GPX/1/1/gpx.xsd" version="1.1" creator="VisuGPX - https://www.visugpx.com">
  <metadata>
    <name>De Meillerie à Salvigny</name>
    <desc><![CDATA[Randonnée en Haute-Savoie]]></desc>
  </metadata>
  <trk>
    <name><![CDATA[ACTIVE LOG: 28 JUL 2015 11:27]]></name>
    <trkseg>
      <trkpt lat="46.21262" lon="6.78586">
        <ele>1838.18</ele>
        <time>2015-07-28T09:27:08Z</time>
      </trkpt>
      <trkpt lat="46.21238" lon="6.78544">
        <ele>1832.89</ele>
        <time>2015-07-28T09:28:13Z</time>
      </trkpt>
      <trkpt lat="46.21241" lon="6.78503">
        <ele>1827.6</ele>
        <time>2015-07-28T09:29:18Z</time>
      </trkpt>
      <trkpt lat="46.21182" lon="6.78551">
        <ele>1825.2</ele>
        <time>2015-07-28T09:30:23Z</time>
      </trkpt>
      <trkpt lat="46.2116" lon="6.78646">
        <ele>1819.91</ele>
        <time>2015-07-28T09:31:28Z</time>
      </trkpt>
      <trkpt lat="46.21107" lon="6.78726">
        <ele>1818.95</ele>
        <time>2015-07-28T09:32:33Z</time>
      </trkpt>
      <trkpt lat="46.21042" lon="6.78775">
        <ele>1818.47</ele>
        <time>2015-07-28T09:33:38Z</time>
      </trkpt>
      <trkpt lat="46.20977" lon="6.78833">
        <ele>1814.63</ele>
        <time>2015-07-28T09:34:43Z</time>
      </trkpt>
      <trkpt lat="46.20916" lon="6.78813">
        <ele>1814.15</ele>
        <time>2015-07-28T09:35:48Z</time>
      </trkpt>
      <trkpt lat="46.20849" lon="6.78821">
        <ele>1815.11</ele>
        <time>2015-07-28T09:36:53Z</time>
      </trkpt>
      <trkpt lat="46.20804" lon="6.7882">
        <ele>1811.74</ele>
        <time>2015-07-28T09:37:58Z</time>
      </trkpt>
      <trkpt lat="46.20791" lon="6.78821">
        <ele>1811.26</ele>
        <time>2015-07-28T09:39:03Z</time>
      </trkpt>
      <trkpt lat="46.20754" lon="6.78823">
        <ele>1810.3</ele>
        <time>2015-07-28T09:40:08Z</time>
      </trkpt>
      <trkpt lat="46.20722" lon="6.78858">
        <ele>1807.9</ele>
        <time>2015-07-28T09:41:13Z</time>
      </trkpt>
      <trkpt lat="46.20701" lon="6.78937">
        <ele>1815.59</ele>
        <time>2015-07-28T09:42:18Z</time>
      </trkpt>
      <trkpt lat="46.20665" lon="6.78994">
        <ele>1822.32</ele>
        <time>2015-07-28T09:43:23Z</time>
      </trkpt>
      <trkpt lat="46.20627" lon="6.79037">
        <ele>1832.89</ele>
        <time>2015-07-28T09:44:28Z</time>
      </trkpt>
      <trkpt lat="46.20589" lon="6.79099">
        <ele>1838.66</ele>
        <time>2015-07-28T09:45:33Z</time>
      </trkpt>
      <trkpt lat="46.20545" lon="6.79159">
        <ele>1843.95</ele>
        <time>2015-07-28T09:46:38Z</time>
      </trkpt>
      <trkpt lat="46.20494" lon="6.79205">
        <ele>1847.31</ele>
        <time>2015-07-28T09:47:43Z</time>
      </trkpt>
      <trkpt lat="46.20445" lon="6.79233">
        <ele>1855.48</ele>
        <time>2015-07-28T09:48:48Z</time>
      </trkpt>
      <trkpt lat="46.2039" lon="6.79259">
        <ele>1864.13</ele>
        <time>2015-07-28T09:49:53Z</time>
      </trkpt>
      <trkpt lat="46.20334" lon="6.79289">
        <ele>1865.58</ele>
        <time>2015-07-28T09:50:58Z</time>
      </trkpt>
      <trkpt lat="46.20296" lon="6.79353">
        <ele>1870.86</ele>
        <time>2015-07-28T09:52:03Z</time>
      </trkpt>
      <trkpt lat="46.20262" lon="6.7941">
        <ele>1876.63</ele>
        <time>2015-07-28T09:53:08Z</time>
      </trkpt>
      <trkpt lat="46.20216" lon="6.79467">
        <ele>1880.48</ele>
        <time>2015-07-28T09:54:13Z</time>
      </trkpt>
      <trkpt lat="46.20179" lon="6.79521">
        <ele>1888.65</ele>
        <time>2015-07-28T09:55:18Z</time>
      </trkpt>
      <trkpt lat="46.20146" lon="6.79585">
        <ele>1893.45</ele>
        <time>2015-07-28T09:56:23Z</time>
      </trkpt>
      <trkpt lat="46.20106" lon="6.79623">
        <ele>1899.7</ele>
        <time>2015-07-28T09:57:28Z</time>
      </trkpt>
      <trkpt lat="46.20071" lon="6.79648">
        <ele>1905.47</ele>
        <time>2015-07-28T09:58:33Z</time>
      </trkpt>
      <trkpt lat="46.2003" lon="6.79656">
        <ele>1913.64</ele>
        <time>2015-07-28T09:59:38Z</time>
      </trkpt>
      <trkpt lat="46.2001" lon="6.79713">
        <ele>1920.37</ele>
        <time>2015-07-28T10:00:43Z</time>
      </trkpt>
      <trkpt lat="46.19977" lon="6.79749">
        <ele>1929.02</ele>
        <time>2015-07-28T10:01:48Z</time>
      </trkpt>
      <trkpt lat="46.19968" lon="6.79767">
        <ele>1931.43</ele>
        <time>2015-07-28T10:02:53Z</time>
      </trkpt>
      <trkpt lat="46.19945" lon="6.7978">
        <ele>1931.91</ele>
        <time>2015-07-28T10:03:58Z</time>
      </trkpt>
      <trkpt lat="46.19894" lon="6.79831">
        <ele>1937.19</ele>
        <time>2015-07-28T10:05:03Z</time>
      </trkpt>
      <trkpt lat="46.19868" lon="6.79905">
        <ele>1944.4</ele>
        <time>2015-07-28T10:06:08Z</time>
      </trkpt>
      <trkpt lat="46.19842" lon="6.79982">
        <ele>1950.65</ele>
        <time>2015-07-28T10:07:13Z</time>
      </trkpt>
      <trkpt lat="46.19811" lon="6.80056">
        <ele>1957.38</ele>
        <time>2015-07-28T10:08:18Z</time>
      </trkpt>
      <trkpt lat="46.19807" lon="6.80136">
        <ele>1960.27</ele>
        <time>2015-07-28T10:09:23Z</time>
      </trkpt>
      <trkpt lat="46.19797" lon="6.80205">
        <ele>1966.03</ele>
        <time>2015-07-28T10:10:28Z</time>
      </trkpt>
      <trkpt lat="46.19776" lon="6.80283">
        <ele>1972.76</ele>
        <time>2015-07-28T10:11:33Z</time>
      </trkpt>
      <trkpt lat="46.19756" lon="6.80331">
        <ele>1978.05</ele>
        <time>2015-07-28T10:12:38Z</time>
      </trkpt>
      <trkpt lat="46.1973" lon="6.80411">
        <ele>1983.82</ele>
        <time>2015-07-28T10:13:43Z</time>
      </trkpt>
      <trkpt lat="46.19707" lon="6.80481">
        <ele>1995.35</ele>
        <time>2015-07-28T10:14:48Z</time>
      </trkpt>
      <trkpt lat="46.1968" lon="6.80568">
        <ele>1996.8</ele>
        <time>2015-07-28T10:15:53Z</time>
      </trkpt>
      <trkpt lat="46.19681" lon="6.80571">
        <ele>1995.35</ele>
        <time>2015-07-28T10:16:58Z</time>
      </trkpt>
      <trkpt lat="46.19681" lon="6.80571">
        <ele>1994.87</ele>
        <time>2015-07-28T10:18:03Z</time>
      </trkpt>
      <trkpt lat="46.19678" lon="6.80571">
        <ele>1995.35</ele>
        <time>2015-07-28T10:19:08Z</time>
      </trkpt>
      <trkpt lat="46.19656" lon="6.80545">
        <ele>1993.43</ele>
        <time>2015-07-28T10:20:13Z</time>
      </trkpt>
      <trkpt lat="46.19646" lon="6.80482">
        <ele>1979.49</ele>
        <time>2015-07-28T10:21:18Z</time>
      </trkpt>
      <trkpt lat="46.19619" lon="6.80487">
        <ele>1965.55</ele>
        <time>2015-07-28T10:22:23Z</time>
      </trkpt>
      <trkpt lat="46.19574" lon="6.80493">
        <ele>1954.5</ele>
        <time>2015-07-28T10:23:28Z</time>
      </trkpt>
      <trkpt lat="46.19532" lon="6.80496">
        <ele>1947.77</ele>
        <time>2015-07-28T10:24:33Z</time>
      </trkpt>
      <trkpt lat="46.195" lon="6.80499">
        <ele>1935.27</ele>
        <time>2015-07-28T10:25:38Z</time>
      </trkpt>
      <trkpt lat="46.19498" lon="6.80458">
        <ele>1921.33</ele>
        <time>2015-07-28T10:26:43Z</time>
      </trkpt>
      <trkpt lat="46.19497" lon="6.80447">
        <ele>1918.45</ele>
        <time>2015-07-28T10:27:18Z</time>
      </trkpt>
    </trkseg>
  </trk>
</gpx>